Watertown, SD

1:06 PM CDT on July 23, 2016 (GMT -0500)
212 And 81 | | Change Station

Elev 1722 ft 44.89 °N, 97.11 °W | Updated 48 seconds ago

Clear
Clear
84.6 °F
Feels Like 92 °F
N
3.7
Wind Variable Wind from South

Today
High -- | Low -- °F
--% Chance of Precip.
Yesterday
High -- | Low -- °F
Precip. -- in
Pressure 29.72 in
Visibility 10.0 miles
Clouds Clear
Heat Index 92 °F
Dew Point 74 °F
Humidity 70%
Rainfall 0.60 in
Snow Depth Not available.
6:04 AM 9:04 PM
Waning Gibbous, 83% visible
METAR KATY 231753Z AUTO 18016G23KT 10SM CLR 28/22 A2976 RMK AO2 SLP064 60068 T02830217 10294 20206 53004
Pressure 29.72 in
Visibility 10.0 miles
Clouds Clear
Heat Index 92 °F
Dew Point 74 °F
Humidity 70%
Rainfall 0.60 in
Snow Depth Not available.
6:04 AM 9:04 PM
Waning Gibbous, 83% visible
METAR KATY 231753Z AUTO 18016G23KT 10SM CLR 28/22 A2976 RMK AO2 SLP064 60068 T02830217 10294 20206 53004

10-Day Weather Forecast

Almanac

Astronomy

Jul. 23, 2016 Rise Set
Actual Time
Civil Twilight
Nautical Twilight
Astronomical Twilight
Moon
Length of Visible Light
Length of Day
Tomorrow will be .
, % of the Moon is Illuminated

Today's Extremes

State Highs State Lows

Community

WunderPhotos

Upload Photos

1,926,878 photos uploaded!

WunderBlog® & News

Nearby

Air Quality

  Air Quality AQ Index Pollutant
Not available.

Snow Depth

Station Depth Elevation

Earthquake Activity

City Distance Mag. Time & Date
Minimum magnitude displayed is 2.5.

Coastal Water Temperatures

Place Temperature

Stations

Nearby Weather Stations

Station Location Temp. Windchill Dew Point Humidity Wind Precip. Elev Updated Type
                   

Watches & Warnings

There are currently no watches in effect.